sensor_id;sensor_type;location;lat;lon;timestamp;temperature;humidity
43320;DHT22;28914;48.722;9.332;2023-08-31T00:01:42;18.20;82.60
43320;DHT22;28914;48.722;9.332;2023-08-31T00:07:01;18.20;83.00
43320;DHT22;28914;48.722;9.332;2023-08-31T00:12:20;18.10;83.00
43320;DHT22;28914;48.722;9.332;2023-08-31T00:17:41;18.10;83.00
43320;DHT22;28914;48.722;9.332;2023-08-31T00:23:01;18.10;83.30
43320;DHT22;28914;48.722;9.332;2023-08-31T00:28:20;18.00;83.20
43320;DHT22;28914;48.722;9.332;2023-08-31T00:33:40;18.00;83.50
43320;DHT22;28914;48.722;9.332;2023-08-31T00:39:03;18.00;83.50
43320;DHT22;28914;48.722;9.332;2023-08-31T00:44:27;17.90;83.70
43320;DHT22;28914;48.722;9.332;2023-08-31T00:49:47;17.90;83.80
43320;DHT22;28914;48.722;9.332;2023-08-31T00:55:07;17.90;83.80
43320;DHT22;28914;48.722;9.332;2023-08-31T01:00:46;17.90;85.20
43320;DHT22;28914;48.722;9.332;2023-08-31T01:06:32;17.80;84.50
43320;DHT22;28914;48.722;9.332;2023-08-31T01:12:10;17.80;84.80
43320;DHT22;28914;48.722;9.332;2023-08-31T01:17:31;17.70;84.30
43320;DHT22;28914;48.722;9.332;2023-08-31T01:23:18;17.70;84.10
43320;DHT22;28914;48.722;9.332;2023-08-31T01:28:38;17.60;84.30
43320;DHT22;28914;48.722;9.332;2023-08-31T01:33:57;17.40;83.60
43320;DHT22;28914;48.722;9.332;2023-08-31T01:39:26;17.30;83.70
43320;DHT22;28914;48.722;9.332;2023-08-31T01:44:48;17.20;84.20
43320;DHT22;28914;48.722;9.332;2023-08-31T01:50:08;17.10;84.20
43320;DHT22;28914;48.722;9.332;2023-08-31T01:55:27;17.00;84.30
43320;DHT22;28914;48.722;9.332;2023-08-31T02:00:47;16.90;84.40
43320;DHT22;28914;48.722;9.332;2023-08-31T02:06:06;16.90;84.60
43320;DHT22;28914;48.722;9.332;2023-08-31T02:11:25;16.80;84.80
43320;DHT22;28914;48.722;9.332;2023-08-31T02:16:45;16.80;85.10
43320;DHT22;28914;48.722;9.332;2023-08-31T02:22:04;16.70;85.60
43320;DHT22;28914;48.722;9.332;2023-08-31T02:27:23;16.70;85.70
43320;DHT22;28914;48.722;9.332;2023-08-31T02:32:42;16.70;85.60
43320;DHT22;28914;48.722;9.332;2023-08-31T02:38:03;16.70;85.60
43320;DHT22;28914;48.722;9.332;2023-08-31T02:43:22;16.70;85.70
43320;DHT22;28914;48.722;9.332;2023-08-31T02:48:41;16.60;85.80
43320;DHT22;28914;48.722;9.332;2023-08-31T02:54:00;16.60;85.90
43320;DHT22;28914;48.722;9.332;2023-08-31T02:59:19;16.60;85.90
43320;DHT22;28914;48.722;9.332;2023-08-31T03:04:38;16.60;85.80
43320;DHT22;28914;48.722;9.332;2023-08-31T03:09:58;16.60;85.80
43320;DHT22;28914;48.722;9.332;2023-08-31T03:15:17;16.60;85.90
43320;DHT22;28914;48.722;9.332;2023-08-31T03:20:37;16.50;86.60
43320;DHT22;28914;48.722;9.332;2023-08-31T03:25:56;16.50;85.70
43320;DHT22;28914;48.722;9.332;2023-08-31T03:31:15;16.40;85.60
43320;DHT22;28914;48.722;9.332;2023-08-31T03:36:34;16.40;85.70
43320;DHT22;28914;48.722;9.332;2023-08-31T03:41:53;16.30;86.00
43320;DHT22;28914;48.722;9.332;2023-08-31T03:47:12;16.30;86.30
43320;DHT22;28914;48.722;9.332;2023-08-31T03:52:32;16.30;87.00
43320;DHT22;28914;48.722;9.332;2023-08-31T03:57:51;16.20;86.70
43320;DHT22;28914;48.722;9.332;2023-08-31T04:03:10;16.20;86.70
43320;DHT22;28914;48.722;9.332;2023-08-31T04:08:30;16.20;87.00
43320;DHT22;28914;48.722;9.332;2023-08-31T04:13:49;16.30;87.20
43320;DHT22;28914;48.722;9.332;2023-08-31T04:19:08;16.30;87.40
43320;DHT22;28914;48.722;9.332;2023-08-31T04:24:27;16.30;87.50
43320;DHT22;28914;48.722;9.332;2023-08-31T04:29:47;16.40;87.50
43320;DHT22;28914;48.722;9.332;2023-08-31T04:35:07;16.40;87.60
43320;DHT22;28914;48.722;9.332;2023-08-31T04:40:27;16.40;87.40
43320;DHT22;28914;48.722;9.332;2023-08-31T04:45:47;16.40;87.30
43320;DHT22;28914;48.722;9.332;2023-08-31T04:51:06;16.30;87.40
43320;DHT22;28914;48.722;9.332;2023-08-31T04:56:30;16.30;87.50
43320;DHT22;28914;48.722;9.332;2023-08-31T05:01:50;16.30;87.60
43320;DHT22;28914;48.722;9.332;2023-08-31T05:07:10;16.30;87.70
43320;DHT22;28914;48.722;9.332;2023-08-31T05:12:29;16.40;87.80
43320;DHT22;28914;48.722;9.332;2023-08-31T05:17:48;16.40;88.10
43320;DHT22;28914;48.722;9.332;2023-08-31T05:23:07;16.50;88.10
43320;DHT22;28914;48.722;9.332;2023-08-31T05:28:27;16.60;88.10
43320;DHT22;28914;48.722;9.332;2023-08-31T05:33:47;16.60;88.90
43320;DHT22;28914;48.722;9.332;2023-08-31T05:39:06;16.70;88.30
43320;DHT22;28914;48.722;9.332;2023-08-31T05:44:27;16.80;88.30
43320;DHT22;28914;48.722;9.332;2023-08-31T05:49:46;16.80;88.40
43320;DHT22;28914;48.722;9.332;2023-08-31T05:55:06;16.90;88.70
43320;DHT22;28914;48.722;9.332;2023-08-31T06:00:26;17.00;88.70
43320;DHT22;28914;48.722;9.332;2023-08-31T06:05:45;17.10;88.60
43320;DHT22;28914;48.722;9.332;2023-08-31T06:11:04;17.20;88.50
43320;DHT22;28914;48.722;9.332;2023-08-31T06:16:24;17.30;88.60
43320;DHT22;28914;48.722;9.332;2023-08-31T06:21:44;17.40;88.80
43320;DHT22;28914;48.722;9.332;2023-08-31T06:27:03;17.50;89.10
43320;DHT22;28914;48.722;9.332;2023-08-31T06:32:23;17.60;88.60
43320;DHT22;28914;48.722;9.332;2023-08-31T06:37:43;17.80;89.10
43320;DHT22;28914;48.722;9.332;2023-08-31T06:43:02;17.90;88.00
43320;DHT22;28914;48.722;9.332;2023-08-31T06:48:22;18.10;87.20
43320;DHT22;28914;48.722;9.332;2023-08-31T06:53:42;18.20;87.20
43320;DHT22;28914;48.722;9.332;2023-08-31T06:59:02;18.30;87.30
43320;DHT22;28914;48.722;9.332;2023-08-31T07:04:21;18.60;87.10
43320;DHT22;28914;48.722;9.332;2023-08-31T07:09:45;18.70;86.00
43320;DHT22;28914;48.722;9.332;2023-08-31T07:15:05;18.90;85.40
43320;DHT22;28914;48.722;9.332;2023-08-31T07:20:25;19.00;84.70
43320;DHT22;28914;48.722;9.332;2023-08-31T07:25:44;19.10;84.50
43320;DHT22;28914;48.722;9.332;2023-08-31T07:31:05;19.30;85.40
43320;DHT22;28914;48.722;9.332;2023-08-31T07:36:25;19.60;85.60
43320;DHT22;28914;48.722;9.332;2023-08-31T07:41:44;20.00;85.80
43320;DHT22;28914;48.722;9.332;2023-08-31T07:47:04;20.40;84.00
43320;DHT22;28914;48.722;9.332;2023-08-31T07:52:23;20.80;83.00
43320;DHT22;28914;48.722;9.332;2023-08-31T07:57:42;21.30;81.50
43320;DHT22;28914;48.722;9.332;2023-08-31T08:03:02;21.90;78.80
43320;DHT22;28914;48.722;9.332;2023-08-31T08:08:21;22.60;79.80
43320;DHT22;28914;48.722;9.332;2023-08-31T08:13:40;24.40;73.00
43320;DHT22;28914;48.722;9.332;2023-08-31T08:19:00;25.50;75.50
43320;DHT22;28914;48.722;9.332;2023-08-31T08:24:19;27.30;68.60
43320;DHT22;28914;48.722;9.332;2023-08-31T08:29:38;29.10;67.50
43320;DHT22;28914;48.722;9.332;2023-08-31T08:34:57;30.90;59.70
43320;DHT22;28914;48.722;9.332;2023-08-31T08:40:16;32.60;59.70
43320;DHT22;28914;48.722;9.332;2023-08-31T08:45:37;33.80;56.90
43320;DHT22;28914;48.722;9.332;2023-08-31T08:50:58;34.70;52.70
43320;DHT22;28914;48.722;9.332;2023-08-31T08:56:17;35.10;48.10
43320;DHT22;28914;48.722;9.332;2023-08-31T09:01:36;35.10;46.60
43320;DHT22;28914;48.722;9.332;2023-08-31T09:06:56;35.40;46.20
43320;DHT22;28914;48.722;9.332;2023-08-31T09:12:15;35.00;45.50
43320;DHT22;28914;48.722;9.332;2023-08-31T09:17:39;34.00;44.50
43320;DHT22;28914;48.722;9.332;2023-08-31T09:22:58;33.00;43.80
43320;DHT22;28914;48.722;9.332;2023-08-31T09:28:19;32.00;45.80
43320;DHT22;28914;48.722;9.332;2023-08-31T09:33:50;31.00;46.40
43320;DHT22;28914;48.722;9.332;2023-08-31T09:39:09;29.90;46.40
43320;DHT22;28914;48.722;9.332;2023-08-31T09:44:30;29.60;51.10
43320;DHT22;28914;48.722;9.332;2023-08-31T09:49:49;31.00;52.40
43320;DHT22;28914;48.722;9.332;2023-08-31T09:55:09;32.40;48.60
43320;DHT22;28914;48.722;9.332;2023-08-31T10:00:31;33.20;45.40
43320;DHT22;28914;48.722;9.332;2023-08-31T10:05:51;33.20;44.60
43320;DHT22;28914;48.722;9.332;2023-08-31T10:11:11;33.30;43.70
43320;DHT22;28914;48.722;9.332;2023-08-31T10:16:32;33.50;42.80
43320;DHT22;28914;48.722;9.332;2023-08-31T10:21:53;33.50;43.20
43320;DHT22;28914;48.722;9.332;2023-08-31T10:27:19;33.60;43.00
43320;DHT22;28914;48.722;9.332;2023-08-31T10:32:38;34.50;42.40
43320;DHT22;28914;48.722;9.332;2023-08-31T10:38:16;35.00;40.80
43320;DHT22;28914;48.722;9.332;2023-08-31T10:43:46;34.80;38.50
43320;DHT22;28914;48.722;9.332;2023-08-31T10:54:32;35.60;39.00
43320;DHT22;28914;48.722;9.332;2023-08-31T11:00:01;35.70;37.60
43320;DHT22;28914;48.722;9.332;2023-08-31T11:05:21;35.60;37.40
43320;DHT22;28914;48.722;9.332;2023-08-31T11:10:40;35.90;38.20
43320;DHT22;28914;48.722;9.332;2023-08-31T11:16:04;35.90;37.40
43320;DHT22;28914;48.722;9.332;2023-08-31T11:21:24;35.20;37.10
43320;DHT22;28914;48.722;9.332;2023-08-31T11:26:43;34.30;37.50
43320;DHT22;28914;48.722;9.332;2023-08-31T11:32:02;33.40;37.80
43320;DHT22;28914;48.722;9.332;2023-08-31T11:37:21;32.20;37.20
43320;DHT22;28914;48.722;9.332;2023-08-31T11:42:45;31.80;39.60
43320;DHT22;28914;48.722;9.332;2023-08-31T11:48:07;31.60;37.20
43320;DHT22;28914;48.722;9.332;2023-08-31T11:53:27;31.20;38.80
43320;DHT22;28914;48.722;9.332;2023-08-31T11:58:50;30.80;38.30
43320;DHT22;28914;48.722;9.332;2023-08-31T12:04:14;30.30;39.60
43320;DHT22;28914;48.722;9.332;2023-08-31T12:09:34;29.70;39.50
43320;DHT22;28914;48.722;9.332;2023-08-31T12:14:53;29.40;41.40
43320;DHT22;28914;48.722;9.332;2023-08-31T12:20:13;29.30;42.40
43320;DHT22;28914;48.722;9.332;2023-08-31T12:25:32;29.20;42.10
43320;DHT22;28914;48.722;9.332;2023-08-31T12:30:53;29.00;42.00
43320;DHT22;28914;48.722;9.332;2023-08-31T12:36:15;28.70;41.30
43320;DHT22;28914;48.722;9.332;2023-08-31T12:41:38;28.40;41.90
43320;DHT22;28914;48.722;9.332;2023-08-31T12:46:57;28.10;42.00
43320;DHT22;28914;48.722;9.332;2023-08-31T12:52:16;27.80;42.90
43320;DHT22;28914;48.722;9.332;2023-08-31T12:57:36;27.50;43.40
43320;DHT22;28914;48.722;9.332;2023-08-31T13:02:55;27.30;43.70
43320;DHT22;28914;48.722;9.332;2023-08-31T13:08:14;27.30;43.50
43320;DHT22;28914;48.722;9.332;2023-08-31T13:13:33;27.20;43.40
43320;DHT22;28914;48.722;9.332;2023-08-31T13:18:52;27.00;43.80
43320;DHT22;28914;48.722;9.332;2023-08-31T13:24:11;26.90;43.90
43320;DHT22;28914;48.722;9.332;2023-08-31T13:29:31;26.70;44.40
43320;DHT22;28914;48.722;9.332;2023-08-31T13:34:50;26.50;44.70
43320;DHT22;28914;48.722;9.332;2023-08-31T13:40:10;26.30;45.00
43320;DHT22;28914;48.722;9.332;2023-08-31T13:45:31;26.10;45.50
43320;DHT22;28914;48.722;9.332;2023-08-31T13:50:52;25.80;46.10
43320;DHT22;28914;48.722;9.332;2023-08-31T13:56:11;25.60;46.40
43320;DHT22;28914;48.722;9.332;2023-08-31T14:01:30;25.50;46.90
43320;DHT22;28914;48.722;9.332;2023-08-31T14:06:49;25.40;46.80
43320;DHT22;28914;48.722;9.332;2023-08-31T14:12:08;25.40;46.80
43320;DHT22;28914;48.722;9.332;2023-08-31T14:17:28;25.40;46.80
43320;DHT22;28914;48.722;9.332;2023-08-31T14:22:47;25.40;46.70
43320;DHT22;28914;48.722;9.332;2023-08-31T14:28:06;25.40;47.50
43320;DHT22;28914;48.722;9.332;2023-08-31T14:33:25;25.30;48.60
43320;DHT22;28914;48.722;9.332;2023-08-31T14:38:45;25.10;48.60
43320;DHT22;28914;48.722;9.332;2023-08-31T14:44:05;25.00;48.30
43320;DHT22;28914;48.722;9.332;2023-08-31T14:49:24;24.90;48.30
43320;DHT22;28914;48.722;9.332;2023-08-31T14:54:47;24.90;49.20
43320;DHT22;28914;48.722;9.332;2023-08-31T15:00:07;25.00;48.80
43320;DHT22;28914;48.722;9.332;2023-08-31T15:05:26;25.00;49.00
43320;DHT22;28914;48.722;9.332;2023-08-31T15:10:49;25.10;49.10
43320;DHT22;28914;48.722;9.332;2023-08-31T15:16:08;25.20;48.80
43320;DHT22;28914;48.722;9.332;2023-08-31T15:21:27;25.30;48.80
43320;DHT22;28914;48.722;9.332;2023-08-31T15:26:46;25.30;48.50
43320;DHT22;28914;48.722;9.332;2023-08-31T15:32:05;25.30;48.60
43320;DHT22;28914;48.722;9.332;2023-08-31T15:37:26;25.20;48.30
43320;DHT22;28914;48.722;9.332;2023-08-31T15:42:45;25.00;48.40
43320;DHT22;28914;48.722;9.332;2023-08-31T15:48:05;24.90;48.90
43320;DHT22;28914;48.722;9.332;2023-08-31T15:53:25;24.80;49.10
43320;DHT22;28914;48.722;9.332;2023-08-31T15:58:44;24.70;49.20
43320;DHT22;28914;48.722;9.332;2023-08-31T16:04:04;24.50;49.50
43320;DHT22;28914;48.722;9.332;2023-08-31T16:09:22;24.40;50.10
43320;DHT22;28914;48.722;9.332;2023-08-31T16:14:46;24.20;51.10
43320;DHT22;28914;48.722;9.332;2023-08-31T16:20:06;24.00;51.70
43320;DHT22;28914;48.722;9.332;2023-08-31T16:25:26;23.80;52.20
43320;DHT22;28914;48.722;9.332;2023-08-31T16:30:46;23.60;52.00
43320;DHT22;28914;48.722;9.332;2023-08-31T16:36:08;23.40;52.70
43320;DHT22;28914;48.722;9.332;2023-08-31T16:41:27;23.30;52.50
43320;DHT22;28914;48.722;9.332;2023-08-31T16:46:46;23.20;53.30
43320;DHT22;28914;48.722;9.332;2023-08-31T16:52:06;23.20;53.60
43320;DHT22;28914;48.722;9.332;2023-08-31T16:57:25;23.10;53.80
43320;DHT22;28914;48.722;9.332;2023-08-31T17:02:44;23.10;54.10
43320;DHT22;28914;48.722;9.332;2023-08-31T17:08:04;23.10;54.50
43320;DHT22;28914;48.722;9.332;2023-08-31T17:13:23;23.00;55.00
43320;DHT22;28914;48.722;9.332;2023-08-31T17:18:42;22.90;55.40
43320;DHT22;28914;48.722;9.332;2023-08-31T17:24:01;22.80;55.70
43320;DHT22;28914;48.722;9.332;2023-08-31T17:29:21;22.70;56.10
43320;DHT22;28914;48.722;9.332;2023-08-31T17:34:40;22.60;56.40
43320;DHT22;28914;48.722;9.332;2023-08-31T17:39:59;22.40;56.80
43320;DHT22;28914;48.722;9.332;2023-08-31T17:45:25;22.30;57.00
43320;DHT22;28914;48.722;9.332;2023-08-31T17:50:44;22.20;57.20
43320;DHT22;28914;48.722;9.332;2023-08-31T17:56:04;22.10;57.50
43320;DHT22;28914;48.722;9.332;2023-08-31T18:01:23;22.00;58.10
43320;DHT22;28914;48.722;9.332;2023-08-31T18:06:44;21.80;58.70
43320;DHT22;28914;48.722;9.332;2023-08-31T18:12:04;21.80;59.00
43320;DHT22;28914;48.722;9.332;2023-08-31T18:17:24;21.60;59.00
43320;DHT22;28914;48.722;9.332;2023-08-31T18:22:43;21.50;59.30
43320;DHT22;28914;48.722;9.332;2023-08-31T18:28:03;21.40;60.50
43320;DHT22;28914;48.722;9.332;2023-08-31T18:33:26;21.40;59.90
43320;DHT22;28914;48.722;9.332;2023-08-31T18:38:45;21.20;59.90
43320;DHT22;28914;48.722;9.332;2023-08-31T18:44:06;21.20;60.10
43320;DHT22;28914;48.722;9.332;2023-08-31T18:49:25;21.10;60.70
43320;DHT22;28914;48.722;9.332;2023-08-31T18:54:44;21.10;61.30
43320;DHT22;28914;48.722;9.332;2023-08-31T19:00:06;21.00;61.70
43320;DHT22;28914;48.722;9.332;2023-08-31T19:05:26;21.00;62.30
43320;DHT22;28914;48.722;9.332;2023-08-31T19:10:46;20.90;62.40
43320;DHT22;28914;48.722;9.332;2023-08-31T19:16:05;20.80;62.60
43320;DHT22;28914;48.722;9.332;2023-08-31T19:21:26;20.70;62.80
43320;DHT22;28914;48.722;9.332;2023-08-31T19:26:46;20.70;63.10
43320;DHT22;28914;48.722;9.332;2023-08-31T19:32:05;20.60;63.60
43320;DHT22;28914;48.722;9.332;2023-08-31T19:37:31;20.60;64.00
43320;DHT22;28914;48.722;9.332;2023-08-31T19:42:51;20.50;64.60
43320;DHT22;28914;48.722;9.332;2023-08-31T19:48:11;20.50;64.70
43320;DHT22;28914;48.722;9.332;2023-08-31T19:53:30;20.50;64.60
43320;DHT22;28914;48.722;9.332;2023-08-31T19:58:49;20.40;65.70
43320;DHT22;28914;48.722;9.332;2023-08-31T20:04:09;20.40;65.20
43320;DHT22;28914;48.722;9.332;2023-08-31T20:09:28;20.40;66.00
43320;DHT22;28914;48.722;9.332;2023-08-31T20:14:47;20.40;65.70
43320;DHT22;28914;48.722;9.332;2023-08-31T20:20:07;20.30;65.90
43320;DHT22;28914;48.722;9.332;2023-08-31T20:25:26;20.30;66.00
43320;DHT22;28914;48.722;9.332;2023-08-31T20:30:46;20.30;66.30
43320;DHT22;28914;48.722;9.332;2023-08-31T20:36:07;20.30;66.70
43320;DHT22;28914;48.722;9.332;2023-08-31T20:41:26;20.20;66.70
43320;DHT22;28914;48.722;9.332;2023-08-31T20:46:47;20.20;67.20
43320;DHT22;28914;48.722;9.332;2023-08-31T20:52:06;20.20;67.10
43320;DHT22;28914;48.722;9.332;2023-08-31T20:57:26;20.20;67.50
43320;DHT22;28914;48.722;9.332;2023-08-31T21:02:45;20.20;67.80
43320;DHT22;28914;48.722;9.332;2023-08-31T21:08:05;20.20;68.10
43320;DHT22;28914;48.722;9.332;2023-08-31T21:13:24;20.20;69.00
43320;DHT22;28914;48.722;9.332;2023-08-31T21:18:43;20.10;68.60
43320;DHT22;28914;48.722;9.332;2023-08-31T21:24:03;20.10;67.70
43320;DHT22;28914;48.722;9.332;2023-08-31T21:29:22;20.00;68.50
43320;DHT22;28914;48.722;9.332;2023-08-31T21:34:41;20.00;68.70
43320;DHT22;28914;48.722;9.332;2023-08-31T21:40:00;20.00;69.50
43320;DHT22;28914;48.722;9.332;2023-08-31T21:45:21;20.00;70.30
43320;DHT22;28914;48.722;9.332;2023-08-31T21:50:40;19.90;70.80
43320;DHT22;28914;48.722;9.332;2023-08-31T21:56:03;19.90;70.80
43320;DHT22;28914;48.722;9.332;2023-08-31T22:01:23;19.80;71.30
43320;DHT22;28914;48.722;9.332;2023-08-31T22:06:42;19.70;71.20
43320;DHT22;28914;48.722;9.332;2023-08-31T22:12:02;19.70;71.60
43320;DHT22;28914;48.722;9.332;2023-08-31T22:17:22;19.60;71.80
43320;DHT22;28914;48.722;9.332;2023-08-31T22:22:42;19.60;72.10
43320;DHT22;28914;48.722;9.332;2023-08-31T22:28:02;19.60;72.30
43320;DHT22;28914;48.722;9.332;2023-08-31T22:33:21;19.50;72.30
43320;DHT22;28914;48.722;9.332;2023-08-31T22:38:41;19.50;73.30
43320;DHT22;28914;48.722;9.332;2023-08-31T22:44:00;19.40;73.60
43320;DHT22;28914;48.722;9.332;2023-08-31T22:49:19;19.50;73.70
43320;DHT22;28914;48.722;9.332;2023-08-31T22:54:39;19.40;73.80
43320;DHT22;28914;48.722;9.332;2023-08-31T22:59:58;19.40;74.00
43320;DHT22;28914;48.722;9.332;2023-08-31T23:05:18;19.30;74.50
43320;DHT22;28914;48.722;9.332;2023-08-31T23:10:38;19.30;74.40
43320;DHT22;28914;48.722;9.332;2023-08-31T23:15:57;19.30;74.70
43320;DHT22;28914;48.722;9.332;2023-08-31T23:21:17;19.30;75.50
43320;DHT22;28914;48.722;9.332;2023-08-31T23:26:36;19.30;75.50
43320;DHT22;28914;48.722;9.332;2023-08-31T23:31:56;19.20;75.70
43320;DHT22;28914;48.722;9.332;2023-08-31T23:37:16;19.20;75.50
43320;DHT22;28914;48.722;9.332;2023-08-31T23:42:35;19.20;75.50
43320;DHT22;28914;48.722;9.332;2023-08-31T23:47:54;19.20;75.80
43320;DHT22;28914;48.722;9.332;2023-08-31T23:53:15;19.20;75.80
43320;DHT22;28914;48.722;9.332;2023-08-31T23:58:34;19.20;75.90
